Time;durP1;ratioP1;P1;durP2;ratioP2;P2;SDS_P1;SDS_P2;PMS_P1;PMS_P2;Temp;Humidity;BMP_temperature;BMP_pressure;BME280_temperature;BME280_humidity;BME280_pressure;Samples;Min_cycle;Max_cycle;Signal;HPM_P1;HPM_P2
2023/12/23 00:00:08;;;;;;;17.48;1.95;;;7.80;99.90;;;;;;5039443;28;20124;-71
2023/12/23 00:02:34;;;;;;;14.60;1.80;;;7.80;99.90;;;;;;5049829;28;20040;-70
2023/12/23 00:05:00;;;;;;;16.92;2.10;;;7.80;99.90;;;;;;5049725;28;20017;-71
2023/12/23 00:07:25;;;;;;;11.77;1.40;;;7.80;99.90;;;;;;5049541;28;20028;-70
2023/12/23 00:09:51;;;;;;;13.73;1.80;;;7.80;99.90;;;;;;5049332;28;20442;-70
2023/12/23 00:12:17;;;;;;;17.48;1.85;;;7.80;99.90;;;;;;5040941;28;20486;-71
2023/12/23 00:14:42;;;;;;;14.98;1.92;;;7.80;99.90;;;;;;5049752;28;20024;-71
2023/12/23 00:17:08;;;;;;;11.63;1.85;;;7.80;99.90;;;;;;5049097;28;20029;-71
2023/12/23 00:19:33;;;;;;;14.52;2.50;;;7.80;99.90;;;;;;5048529;28;20395;-71
2023/12/23 00:21:59;;;;;;;13.63;1.88;;;7.80;99.90;;;;;;5049386;28;20494;-71
2023/12/23 00:24:26;;;;;;;14.00;1.65;;;7.80;99.90;;;;;;5047916;28;20136;-71
2023/12/23 00:26:53;;;;;;;18.27;1.52;;;7.80;99.90;;;;;;5049245;28;20028;-71
2023/12/23 00:29:18;;;;;;;15.25;1.50;;;7.80;99.90;;;;;;5047949;28;20043;-71
2023/12/23 00:31:44;;;;;;;20.17;2.75;;;7.80;99.90;;;;;;5049065;28;20021;-71
2023/12/23 00:34:09;;;;;;;12.50;2.00;;;7.80;99.90;;;;;;5049393;28;20025;-71
2023/12/23 00:36:35;;;;;;;15.70;2.05;;;7.80;99.90;;;;;;5047538;28;20037;-71
2023/12/23 00:39:01;;;;;;;11.35;1.50;;;7.80;99.90;;;;;;5047306;28;20511;-71
2023/12/23 00:41:26;;;;;;;18.15;2.13;;;7.80;99.90;;;;;;5048980;28;20029;-71
2023/12/23 00:43:52;;;;;;;17.95;2.17;;;7.80;99.90;;;;;;5049270;28;20051;-71
2023/12/23 00:46:20;;;;;;;16.10;1.90;;;7.80;99.90;;;;;;5048871;28;20055;-71
2023/12/23 00:48:45;;;;;;;14.50;1.60;;;7.80;99.90;;;;;;5048768;28;20079;-71
2023/12/23 00:51:11;;;;;;;15.57;2.47;;;7.80;99.90;;;;;;5048704;28;20013;-70
2023/12/23 00:53:37;;;;;;;17.95;2.08;;;7.80;99.90;;;;;;5048848;28;20506;-70
2023/12/23 00:56:03;;;;;;;18.95;2.60;;;7.80;99.90;;;;;;5048273;28;20101;-72
2023/12/23 00:58:28;;;;;;;18.65;2.25;;;7.80;99.90;;;;;;5048762;28;20060;-71
2023/12/23 01:00:54;;;;;;;19.30;2.00;;;7.80;99.90;;;;;;5048544;28;20036;-71
2023/12/23 01:03:20;;;;;;;14.90;1.95;;;7.80;99.90;;;;;;5048601;28;20112;-71
2023/12/23 01:05:46;;;;;;;15.43;2.17;;;7.80;99.90;;;;;;5047101;28;20039;-70
2023/12/23 01:08:12;;;;;;;17.42;2.10;;;7.80;99.90;;;;;;5048441;28;20048;-71
2023/12/23 01:10:37;;;;;;;14.35;1.75;;;7.80;99.90;;;;;;5030429;28;20517;-71
2023/12/23 01:13:03;;;;;;;20.25;1.83;;;7.80;99.90;;;;;;5048366;28;20013;-71
2023/12/23 01:15:29;;;;;;;13.23;2.08;;;7.80;99.90;;;;;;5047225;28;20067;-70
2023/12/23 01:17:54;;;;;;;19.27;2.00;;;7.80;99.90;;;;;;5047967;28;20096;-70
2023/12/23 01:20:20;;;;;;;16.15;2.08;;;7.80;99.90;;;;;;5048567;28;20025;-71
2023/12/23 01:22:45;;;;;;;13.75;1.67;;;7.80;99.90;;;;;;5047821;28;20479;-71
2023/12/23 01:25:11;;;;;;;17.08;1.85;;;7.80;99.90;;;;;;5048250;28;20071;-71
2023/12/23 01:27:37;;;;;;;17.17;2.22;;;7.80;99.90;;;;;;5046770;28;20025;-71
2023/12/23 01:30:02;;;;;;;16.05;2.00;;;7.80;99.90;;;;;;5048138;28;20108;-70
2023/12/23 01:32:28;;;;;;;17.27;2.08;;;7.80;99.90;;;;;;5048104;28;20124;-71
2023/12/23 01:34:54;;;;;;;17.92;2.15;;;7.80;99.90;;;;;;5047888;28;20028;-71
2023/12/23 01:37:19;;;;;;;13.48;2.20;;;7.80;99.90;;;;;;5047615;28;20371;-70
2023/12/23 01:39:45;;;;;;;16.55;2.33;;;7.80;99.90;;;;;;5047741;28;20048;-71
2023/12/23 01:42:10;;;;;;;19.95;1.73;;;7.80;99.90;;;;;;5047919;28;20197;-71
2023/12/23 01:44:36;;;;;;;18.38;2.63;;;7.80;99.90;;;;;;5048174;28;20029;-70
2023/12/23 01:47:03;;;;;;;15.98;1.73;;;7.80;99.90;;;;;;5046810;28;20035;-70
2023/12/23 01:49:30;;;;;;;16.02;1.90;;;7.80;99.90;;;;;;5047735;28;20056;-70
2023/12/23 01:51:59;;;;;;;15.88;2.25;;;7.80;99.90;;;;;;5047237;28;20035;-70
2023/12/23 01:54:26;;;;;;;17.73;1.83;;;7.80;99.90;;;;;;5047783;28;20013;-70
2023/12/23 01:56:52;;;;;;;23.90;2.00;;;7.80;99.90;;;;;;5047498;28;20107;-70
2023/12/23 01:59:18;;;;;;;12.50;2.05;;;7.80;99.90;;;;;;5047671;28;20071;-70
2023/12/23 02:01:45;;;;;;;13.27;2.10;;;7.80;99.90;;;;;;5035762;28;20048;-71
2023/12/23 02:04:11;;;;;;;21.00;1.80;;;7.80;99.90;;;;;;5047443;28;20029;-71
2023/12/23 02:06:37;;;;;;;16.40;1.77;;;7.80;99.90;;;;;;5046919;28;20529;-70
2023/12/23 02:09:03;;;;;;;14.23;1.60;;;7.80;99.90;;;;;;5045871;28;20048;-70
2023/12/23 02:11:54;;;;;;;12.23;1.58;;;7.80;99.90;;;;;;5047233;28;20032;-70
2023/12/23 02:14:42;;;;;;;11.52;1.70;;;7.80;99.90;;;;;;5047269;28;20032;-71
2023/12/23 02:17:09;;;;;;;17.67;2.40;;;7.90;99.90;;;;;;5046684;28;20033;-70
2023/12/23 02:19:34;;;;;;;19.92;2.65;;;7.90;99.90;;;;;;5047088;28;20463;-71
2023/12/23 02:22:00;;;;;;;15.10;2.00;;;7.90;99.90;;;;;;5047107;28;20028;-70
2023/12/23 02:24:26;;;;;;;13.57;1.70;;;7.90;99.90;;;;;;5047252;28;20395;-70
2023/12/23 02:26:58;;;;;;;14.38;2.20;;;7.90;99.90;;;;;;5046725;28;20165;-70
2023/12/23 02:29:25;;;;;;;13.70;2.00;;;7.90;99.90;;;;;;5047054;28;20040;-70
2023/12/23 02:31:51;;;;;;;18.52;2.80;;;7.90;99.90;;;;;;5046427;28;20027;-70
2023/12/23 02:34:17;;;;;;;14.50;2.03;;;7.80;99.90;;;;;;5046883;28;20029;-70
2023/12/23 02:36:43;;;;;;;13.02;2.08;;;7.90;99.90;;;;;;5046692;28;20481;-70
2023/12/23 02:39:09;;;;;;;14.85;2.03;;;7.90;99.90;;;;;;5046541;28;20052;-70
2023/12/23 02:41:34;;;;;;;7.00;1.70;;;7.90;99.90;;;;;;5046454;28;20024;-70
2023/12/23 02:44:00;;;;;;;11.23;2.25;;;7.90;99.90;;;;;;5046475;28;20814;-70
2023/12/23 02:46:26;;;;;;;20.40;2.60;;;7.90;99.90;;;;;;5046325;28;20036;-71
2023/12/23 02:48:51;;;;;;;16.88;2.47;;;7.90;99.90;;;;;;5046606;28;20094;-70
2023/12/23 02:51:17;;;;;;;14.02;2.30;;;7.90;99.90;;;;;;5046619;28;20023;-70
2023/12/23 02:53:42;;;;;;;16.75;2.55;;;7.90;99.90;;;;;;5046979;28;20029;-71
2023/12/23 02:56:08;;;;;;;13.70;2.97;;;8.00;99.90;;;;;;5046383;28;20048;-70
2023/12/23 02:58:34;;;;;;;14.55;2.90;;;8.00;99.90;;;;;;5046300;28;20112;-70
2023/12/23 03:00:59;;;;;;;17.00;3.75;;;8.00;99.90;;;;;;5045852;28;20028;-70
2023/12/23 03:03:25;;;;;;;18.95;4.78;;;8.00;99.90;;;;;;5047192;28;20125;-70
2023/12/23 03:05:53;;;;;;;18.05;5.93;;;8.00;99.90;;;;;;5046502;28;20029;-70
2023/12/23 03:08:18;;;;;;;25.45;6.82;;;8.00;99.90;;;;;;5028091;28;20539;-70
2023/12/23 03:10:44;;;;;;;22.35;6.78;;;8.10;99.90;;;;;;5046162;28;20052;-70
2023/12/23 03:13:09;;;;;;;25.77;7.38;;;8.10;99.90;;;;;;5046080;28;20132;-71
2023/12/23 03:15:35;;;;;;;23.05;7.93;;;8.10;99.90;;;;;;5046441;28;20040;-71
2023/12/23 03:18:00;;;;;;;29.42;7.80;;;8.20;99.90;;;;;;5046201;28;20025;-70
2023/12/23 03:20:26;;;;;;;27.38;8.20;;;8.30;99.90;;;;;;5046696;28;20060;-71
2023/12/23 03:22:52;;;;;;;22.42;8.50;;;8.30;99.90;;;;;;5045980;28;20029;-70
2023/12/23 03:25:17;;;;;;;34.40;9.73;;;8.40;99.90;;;;;;5046366;28;20701;-70
2023/12/23 03:27:43;;;;;;;28.83;9.13;;;8.50;99.90;;;;;;5046266;28;20040;-70
2023/12/23 03:30:09;;;;;;;27.80;9.05;;;8.50;99.90;;;;;;5044921;28;20029;-70
2023/12/23 03:32:35;;;;;;;23.60;7.97;;;8.60;99.90;;;;;;5045798;28;20024;-71
2023/12/23 03:35:01;;;;;;;24.95;8.60;;;8.60;99.90;;;;;;5046454;28;20394;-70
2023/12/23 03:37:27;;;;;;;20.20;7.65;;;8.60;99.90;;;;;;5046144;28;20075;-70
2023/12/23 03:39:52;;;;;;;21.02;6.75;;;8.70;99.90;;;;;;5045868;28;20541;-70
2023/12/23 03:42:18;;;;;;;20.83;6.68;;;8.80;99.90;;;;;;5045829;28;20040;-70
2023/12/23 03:44:43;;;;;;;19.77;6.43;;;8.80;99.90;;;;;;5046254;28;20540;-70
2023/12/23 03:47:09;;;;;;;28.52;5.57;;;8.90;99.90;;;;;;5045530;28;20033;-70
2023/12/23 03:49:35;;;;;;;20.95;5.07;;;8.90;99.90;;;;;;5046182;28;20615;-70
2023/12/23 03:52:00;;;;;;;22.92;4.05;;;8.90;99.90;;;;;;5045736;28;20021;-70
2023/12/23 03:54:26;;;;;;;19.50;3.88;;;8.90;99.90;;;;;;5046345;28;20017;-71
2023/12/23 03:56:51;;;;;;;19.98;4.07;;;8.90;99.90;;;;;;5046096;28;20112;-71
2023/12/23 03:59:17;;;;;;;23.15;3.83;;;9.00;99.90;;;;;;5046137;28;20013;-71
2023/12/23 04:01:43;;;;;;;24.42;3.55;;;9.00;99.90;;;;;;5045880;28;20518;-71
2023/12/23 04:04:08;;;;;;;21.63;3.60;;;9.00;99.90;;;;;;5046020;28;20029;-71
2023/12/23 04:06:34;;;;;;;22.05;3.67;;;9.00;99.90;;;;;;5045310;28;20570;-71
2023/12/23 04:09:00;;;;;;;20.77;3.55;;;9.00;99.90;;;;;;5046102;28;20039;-71
2023/12/23 04:11:25;;;;;;;17.45;2.70;;;9.10;99.90;;;;;;5047989;28;20021;-71
2023/12/23 04:13:51;;;;;;;14.13;2.58;;;9.10;99.90;;;;;;5049293;28;20255;-71
2023/12/23 04:16:17;;;;;;;12.65;2.72;;;9.10;99.90;;;;;;5047791;28;20028;-71
2023/12/23 04:18:42;;;;;;;16.50;2.78;;;9.10;99.90;;;;;;5049732;28;20061;-71
2023/12/23 04:21:09;;;;;;;15.85;2.60;;;9.20;99.90;;;;;;5049402;28;20029;-71
2023/12/23 04:23:36;;;;;;;17.40;3.28;;;9.20;99.90;;;;;;5031239;28;20024;-71
2023/12/23 04:26:02;;;;;;;20.02;2.80;;;9.20;99.90;;;;;;5048062;28;20056;-71
2023/12/23 04:28:28;;;;;;;16.85;2.65;;;9.20;99.90;;;;;;5049253;28;20470;-71
2023/12/23 04:30:56;;;;;;;16.90;2.60;;;9.20;99.90;;;;;;5049136;28;20029;-72
2023/12/23 04:33:22;;;;;;;11.50;2.38;;;9.20;99.90;;;;;;5048801;28;20078;-71
2023/12/23 04:35:48;;;;;;;20.90;2.80;;;9.20;99.90;;;;;;5049375;28;20375;-71
2023/12/23 04:38:14;;;;;;;18.00;2.70;;;9.20;99.90;;;;;;5048221;28;20063;-71
2023/12/23 04:40:41;;;;;;;19.05;3.42;;;9.20;99.90;;;;;;5048842;28;20067;-71
2023/12/23 04:43:09;;;;;;;14.93;3.83;;;9.20;99.90;;;;;;5047179;28;20486;-71
2023/12/23 04:45:35;;;;;;;21.90;3.53;;;9.20;99.90;;;;;;5048864;28;20471;-71
2023/12/23 04:48:01;;;;;;;16.45;2.80;;;9.20;99.90;;;;;;5048527;28;20029;-71
2023/12/23 04:50:27;;;;;;;16.23;3.30;;;9.20;99.90;;;;;;5031051;28;20051;-71
2023/12/23 04:52:52;;;;;;;15.60;3.30;;;9.30;99.90;;;;;;5048662;28;20025;-70
2023/12/23 04:55:18;;;;;;;16.15;3.00;;;9.20;99.90;;;;;;5048925;28;20052;-71
2023/12/23 04:57:44;;;;;;;18.13;3.08;;;9.20;99.90;;;;;;5048401;28;20588;-70
2023/12/23 05:00:11;;;;;;;12.27;2.35;;;9.20;99.90;;;;;;5048843;28;20028;-71
2023/12/23 05:02:37;;;;;;;21.95;3.53;;;9.20;99.90;;;;;;5048649;28;20047;-71
2023/12/23 05:05:03;;;;;;;16.95;3.28;;;9.20;99.90;;;;;;5047261;28;20025;-72
2023/12/23 05:07:29;;;;;;;14.23;2.53;;;9.20;99.90;;;;;;5047950;28;20510;-71
2023/12/23 05:09:54;;;;;;;15.73;2.42;;;9.30;99.90;;;;;;5048694;28;20032;-71
2023/12/23 05:12:22;;;;;;;12.45;2.38;;;9.20;99.90;;;;;;5048071;28;20020;-70
2023/12/23 05:14:49;;;;;;;16.23;1.80;;;9.20;99.90;;;;;;5048867;28;20066;-70
2023/12/23 05:17:14;;;;;;;18.38;2.72;;;9.20;99.90;;;;;;5048203;28;20120;-71
2023/12/23 05:19:41;;;;;;;11.80;2.33;;;9.20;99.90;;;;;;5048334;28;20517;-71
2023/12/23 05:22:07;;;;;;;12.60;2.00;;;9.30;99.90;;;;;;5047115;28;20033;-71
2023/12/23 05:24:33;;;;;;;12.27;1.58;;;9.30;99.90;;;;;;5048354;28;20057;-71
2023/12/23 05:26:59;;;;;;;18.58;3.42;;;9.30;99.90;;;;;;5048166;28;20067;-71
2023/12/23 05:29:25;;;;;;;17.75;2.97;;;9.30;99.90;;;;;;5040408;28;20021;-71
2023/12/23 05:31:50;;;;;;;18.75;3.22;;;9.30;99.90;;;;;;5047752;28;20028;-71
2023/12/23 05:34:17;;;;;;;26.85;4.28;;;9.30;99.90;;;;;;5048063;28;20020;-71
2023/12/23 05:36:42;;;;;;;23.52;3.10;;;9.30;99.90;;;;;;5048138;28;20049;-70
2023/12/23 05:39:09;;;;;;;17.70;2.75;;;9.30;99.90;;;;;;5029624;28;20072;-71
2023/12/23 05:41:35;;;;;;;24.13;3.88;;;9.40;99.90;;;;;;5047989;28;20032;-71
2023/12/23 05:44:01;;;;;;;16.60;3.20;;;9.30;99.90;;;;;;5046385;28;20051;-71
2023/12/23 05:46:26;;;;;;;23.00;3.10;;;9.40;99.90;;;;;;5047963;28;20028;-72
2023/12/23 05:48:52;;;;;;;20.10;3.70;;;9.40;99.90;;;;;;5047439;28;20032;-71
2023/12/23 05:51:18;;;;;;;22.33;3.03;;;9.40;99.90;;;;;;5048173;28;20490;-71
2023/12/23 05:53:43;;;;;;;23.15;4.03;;;9.40;99.90;;;;;;5047736;28;20032;-71
2023/12/23 05:56:09;;;;;;;19.63;3.30;;;9.40;99.90;;;;;;5033651;28;20482;-71
2023/12/23 05:58:35;;;;;;;22.83;3.40;;;9.40;99.90;;;;;;5049081;28;20150;-71
2023/12/23 06:01:00;;;;;;;25.05;3.95;;;9.40;99.90;;;;;;5049751;28;20070;-71
2023/12/23 06:03:26;;;;;;;19.55;3.05;;;9.30;99.90;;;;;;5047491;28;20022;-71
2023/12/23 06:05:52;;;;;;;17.08;2.97;;;9.40;99.90;;;;;;5045994;28;20514;-71
2023/12/23 06:08:17;;;;;;;23.38;3.53;;;9.40;99.90;;;;;;5046959;28;20028;-71
2023/12/23 06:10:43;;;;;;;15.52;2.70;;;9.30;99.90;;;;;;5047392;28;20032;-71
2023/12/23 06:13:09;;;;;;;18.05;3.42;;;9.40;99.90;;;;;;5046963;28;20485;-71
2023/12/23 06:15:34;;;;;;;20.65;3.72;;;9.30;99.90;;;;;;5047250;28;20553;-71
2023/12/23 06:18:00;;;;;;;23.77;3.95;;;9.30;99.90;;;;;;5046998;28;20083;-71
2023/12/23 06:20:25;;;;;;;20.08;3.88;;;9.40;99.90;;;;;;5047314;28;20021;-71
2023/12/23 06:22:51;;;;;;;20.30;3.95;;;9.40;99.90;;;;;;5046684;28;20766;-71
2023/12/23 06:25:17;;;;;;;22.33;4.20;;;9.40;99.90;;;;;;5047478;28;20028;-72
2023/12/23 06:27:42;;;;;;;16.75;3.55;;;9.40;99.90;;;;;;5045463;28;20071;-71
2023/12/23 06:30:08;;;;;;;18.50;3.65;;;9.40;99.90;;;;;;5046792;28;20033;-71
2023/12/23 06:32:34;;;;;;;22.50;3.67;;;9.30;99.90;;;;;;5046951;28;20013;-71
2023/12/23 06:35:00;;;;;;;22.25;3.33;;;9.30;99.90;;;;;;5024709;28;20475;-71
2023/12/23 06:37:25;;;;;;;33.63;3.58;;;9.40;99.90;;;;;;5035391;28;20483;-71
2023/12/23 06:39:51;;;;;;;18.80;3.22;;;9.40;99.90;;;;;;5046672;28;20520;-71
2023/12/23 06:42:17;;;;;;;20.67;3.30;;;9.40;99.90;;;;;;5046829;28;20471;-71
2023/12/23 06:44:43;;;;;;;27.02;3.42;;;9.40;99.90;;;;;;5046876;28;20106;-71
2023/12/23 06:47:09;;;;;;;19.10;3.85;;;9.40;99.90;;;;;;5046443;28;20119;-71
2023/12/23 06:49:34;;;;;;;26.02;3.63;;;9.40;99.90;;;;;;5046815;28;20090;-71
2023/12/23 06:52:00;;;;;;;23.02;3.80;;;9.40;99.90;;;;;;5045164;28;20017;-71
2023/12/23 06:54:26;;;;;;;20.70;3.85;;;9.40;99.90;;;;;;5041375;28;20548;-70
2023/12/23 06:56:51;;;;;;;23.45;3.60;;;9.40;99.90;;;;;;5046446;28;20031;-71
2023/12/23 06:59:17;;;;;;;18.88;3.05;;;9.40;99.90;;;;;;5046791;28;20463;-71
2023/12/23 07:01:42;;;;;;;18.85;3.22;;;9.40;99.90;;;;;;5046663;28;20060;-72
2023/12/23 07:04:08;;;;;;;27.25;3.67;;;9.40;99.90;;;;;;5045019;28;20025;-72
2023/12/23 07:06:35;;;;;;;18.88;3.60;;;9.40;99.90;;;;;;5045284;28;21049;-71
2023/12/23 07:09:01;;;;;;;16.13;3.83;;;9.40;99.90;;;;;;5046084;28;20094;-71
2023/12/23 07:11:27;;;;;;;23.30;3.30;;;9.40;99.90;;;;;;5046668;28;20013;-72
2023/12/23 07:13:53;;;;;;;21.45;3.67;;;9.40;99.90;;;;;;5046093;28;20033;-71
2023/12/23 07:16:18;;;;;;;28.15;3.97;;;9.40;99.90;;;;;;5046516;28;20029;-71
2023/12/23 07:18:44;;;;;;;15.45;3.33;;;9.40;99.90;;;;;;5045555;28;20028;-72
2023/12/23 07:21:11;;;;;;;20.02;4.28;;;9.40;99.90;;;;;;5046636;28;20115;-71
2023/12/23 07:23:37;;;;;;;18.50;3.60;;;9.40;99.90;;;;;;5044808;28;20079;-71
2023/12/23 07:26:03;;;;;;;28.30;3.55;;;9.40;99.90;;;;;;5046285;28;20021;-71
2023/12/23 07:28:29;;;;;;;23.77;4.13;;;9.40;99.90;;;;;;5032014;28;20596;-72
2023/12/23 07:30:55;;;;;;;19.88;3.33;;;9.40;99.90;;;;;;5038889;28;20478;-71
2023/12/23 07:33:22;;;;;;;19.25;2.92;;;9.50;99.90;;;;;;5046025;28;20082;-72
2023/12/23 07:35:47;;;;;;;17.00;3.08;;;9.50;99.90;;;;;;5025117;28;20026;-71
2023/12/23 07:38:13;;;;;;;22.70;3.72;;;9.50;99.90;;;;;;5042074;28;20028;-71
2023/12/23 07:40:40;;;;;;;20.67;3.95;;;9.50;99.90;;;;;;5046148;28;20053;-72
2023/12/23 07:43:06;;;;;;;21.70;3.42;;;9.50;99.90;;;;;;5045707;28;20033;-72
2023/12/23 07:45:32;;;;;;;15.98;2.80;;;9.50;99.90;;;;;;5046988;28;20029;-71
2023/12/23 07:47:58;;;;;;;13.40;3.28;;;9.50;99.90;;;;;;5049888;28;20108;-72
2023/12/23 07:50:24;;;;;;;15.77;2.85;;;9.60;99.90;;;;;;5050405;28;20120;-72
2023/12/23 07:52:49;;;;;;;19.10;3.10;;;9.60;99.90;;;;;;5031722;28;20017;-71
2023/12/23 07:55:15;;;;;;;18.35;3.63;;;9.60;99.90;;;;;;5049888;28;20536;-72
2023/12/23 07:57:42;;;;;;;19.30;2.97;;;9.60;99.90;;;;;;5049875;28;21013;-71
2023/12/23 08:00:09;;;;;;;19.48;2.47;;;9.60;99.90;;;;;;5049753;28;20028;-71
2023/12/23 08:02:35;;;;;;;18.92;2.58;;;9.60;99.90;;;;;;5049700;28;20029;-71
2023/12/23 08:05:02;;;;;;;15.27;2.97;;;9.60;99.90;;;;;;5049179;28;20363;-71
2023/12/23 08:07:28;;;;;;;18.25;3.00;;;9.60;99.90;;;;;;5049661;28;20021;-71
2023/12/23 08:09:53;;;;;;;14.98;2.72;;;9.60;99.90;;;;;;5046956;28;20486;-72
2023/12/23 08:12:19;;;;;;;18.17;3.63;;;9.70;99.90;;;;;;5049176;28;20021;-72
2023/12/23 08:14:45;;;;;;;19.35;2.95;;;9.70;99.90;;;;;;5049439;28;20021;-71
2023/12/23 08:17:11;;;;;;;17.27;2.78;;;9.70;99.90;;;;;;5029438;28;20021;-71
2023/12/23 08:19:37;;;;;;;19.08;2.67;;;9.70;99.90;;;;;;5046870;28;20195;-70
2023/12/23 08:22:03;;;;;;;9.93;2.55;;;9.70;99.90;;;;;;5047554;28;20487;-71
2023/12/23 08:24:28;;;;;;;17.65;3.00;;;9.70;99.90;;;;;;5031279;28;20530;-72
2023/12/23 08:26:54;;;;;;;16.73;3.28;;;9.70;99.90;;;;;;5049100;28;20479;-72
2023/12/23 08:29:20;;;;;;;20.15;2.53;;;9.70;99.90;;;;;;5048738;28;20037;-71
2023/12/23 08:31:46;;;;;;;18.40;2.70;;;9.70;99.90;;;;;;5049340;28;20024;-71
2023/12/23 08:34:12;;;;;;;16.33;2.58;;;9.80;99.90;;;;;;5048627;28;20119;-72
2023/12/23 08:36:38;;;;;;;13.93;2.42;;;9.70;99.90;;;;;;5031075;28;20020;-71
2023/12/23 08:39:03;;;;;;;15.50;2.65;;;9.80;99.90;;;;;;5039596;28;20087;-71
2023/12/23 08:41:29;;;;;;;15.90;2.58;;;9.80;99.90;;;;;;5049096;28;20025;-71
2023/12/23 08:43:55;;;;;;;18.40;2.40;;;9.80;99.90;;;;;;5048888;28;20055;-72
2023/12/23 08:46:20;;;;;;;13.15;2.90;;;9.80;99.90;;;;;;5049310;28;20044;-72
2023/12/23 08:48:46;;;;;;;10.38;2.20;;;9.80;99.90;;;;;;5048735;28;20033;-73
2023/12/23 08:51:12;;;;;;;11.15;2.17;;;9.80;99.90;;;;;;5030940;28;20025;-73
2023/12/23 08:53:39;;;;;;;14.43;2.88;;;9.80;99.90;;;;;;5049002;28;20032;-72
2023/12/23 08:56:05;;;;;;;13.98;2.40;;;9.80;99.90;;;;;;5046242;28;20107;-73
2023/12/23 08:58:31;;;;;;;14.88;2.08;;;9.80;99.90;;;;;;5047176;28;20025;-73
2023/12/23 09:01:00;;;;;;;13.73;2.17;;;9.80;99.90;;;;;;5048526;28;20009;-73
2023/12/23 09:03:25;;;;;;;11.60;2.05;;;9.80;99.90;;;;;;5041968;28;20018;-72
2023/12/23 09:05:51;;;;;;;10.52;2.50;;;9.90;99.90;;;;;;5030706;28;20529;-73
2023/12/23 09:08:17;;;;;;;14.25;2.83;;;9.90;99.90;;;;;;5047799;28;20390;-73
2023/12/23 09:10:43;;;;;;;17.45;2.00;;;9.90;99.90;;;;;;5030612;28;20051;-73
2023/12/23 09:13:08;;;;;;;15.95;2.80;;;9.90;99.90;;;;;;5029907;28;20542;-72
2023/12/23 09:15:34;;;;;;;14.27;2.83;;;9.90;99.90;;;;;;5048447;28;20029;-72
2023/12/23 09:18:00;;;;;;;12.98;2.00;;;9.90;99.90;;;;;;5029183;28;20032;-73
2023/12/23 09:20:27;;;;;;;17.67;2.10;;;9.90;99.90;;;;;;5044058;28;20044;-73
2023/12/23 09:22:53;;;;;;;12.25;2.33;;;10.00;99.90;;;;;;5045815;28;20025;-73
2023/12/23 09:25:19;;;;;;;10.10;2.15;;;10.00;99.90;;;;;;5046897;28;20032;-74
2023/12/23 09:27:44;;;;;;;16.70;2.05;;;10.00;99.90;;;;;;5047546;28;20540;-73
2023/12/23 09:30:10;;;;;;;9.88;2.13;;;10.00;99.90;;;;;;5048163;28;20056;-72
2023/12/23 09:32:37;;;;;;;12.98;2.00;;;10.00;99.90;;;;;;5047334;28;20710;-72
2023/12/23 09:35:03;;;;;;;12.02;2.33;;;10.00;99.90;;;;;;5048385;28;20031;-73
2023/12/23 09:37:29;;;;;;;12.55;2.45;;;10.00;99.90;;;;;;5047752;28;20107;-73
2023/12/23 09:39:54;;;;;;;12.68;2.85;;;10.00;99.90;;;;;;5047703;28;20168;-74
2023/12/23 09:42:23;;;;;;;10.60;2.08;;;10.00;99.90;;;;;;5047313;28;20029;-73
2023/12/23 09:44:49;;;;;;;14.55;2.70;;;10.00;99.90;;;;;;5043245;28;20033;-72
2023/12/23 09:47:15;;;;;;;13.95;2.00;;;10.00;99.90;;;;;;5047962;28;20112;-73
2023/12/23 09:49:40;;;;;;;8.60;2.03;;;10.00;99.90;;;;;;5047420;28;20047;-73
2023/12/23 09:52:06;;;;;;;9.13;2.35;;;10.00;99.90;;;;;;5047092;28;20079;-72
2023/12/23 09:54:37;;;;;;;12.55;2.47;;;10.00;99.90;;;;;;5045910;28;20032;-73
2023/12/23 09:57:03;;;;;;;;;;;10.00;99.90;;;;;;5047976;28;20095;-73
2023/12/23 09:59:30;;;;;;;8.15;2.28;;;10.10;99.90;;;;;;5043163;28;20054;-73
2023/12/23 10:01:56;;;;;;;12.18;2.78;;;10.00;99.90;;;;;;5042291;28;20039;-73
2023/12/23 10:04:21;;;;;;;11.43;2.47;;;10.00;99.90;;;;;;5034873;28;20036;-74
2023/12/23 10:06:47;;;;;;;14.55;3.58;;;10.10;99.90;;;;;;5037337;28;20033;-73
2023/12/23 10:09:13;;;;;;;8.95;2.33;;;10.10;99.90;;;;;;5022413;28;20750;-73
2023/12/23 10:11:39;;;;;;;14.35;2.50;;;10.00;99.90;;;;;;5045468;28;20021;-73
2023/12/23 10:14:05;;;;;;;10.43;2.65;;;10.10;99.90;;;;;;5037534;28;20025;-73
2023/12/23 10:16:30;;;;;;;10.82;2.13;;;10.10;99.90;;;;;;5035344;28;20025;-73
2023/12/23 10:18:56;;;;;;;12.60;2.17;;;10.10;99.90;;;;;;5038660;28;20559;-73
2023/12/23 10:21:22;;;;;;;12.25;1.85;;;10.10;99.90;;;;;;5033800;28;20220;-73
2023/12/23 10:23:47;;;;;;;15.23;2.67;;;10.10;99.90;;;;;;5046645;28;20025;-73
2023/12/23 10:26:14;;;;;;;13.80;1.90;;;10.20;99.90;;;;;;5046938;28;20032;-73
2023/12/23 10:28:42;;;;;;;13.20;2.63;;;10.10;99.90;;;;;;5046452;28;20029;-73
2023/12/23 10:31:11;;;;;;;13.68;2.33;;;10.10;99.90;;;;;;5044841;28;20021;-73
2023/12/23 10:33:44;;;;;;;10.80;2.13;;;10.20;99.90;;;;;;5037002;28;20135;-72
2023/12/23 10:36:12;;;;;;;12.10;2.25;;;10.20;99.90;;;;;;5046800;28;20021;-72
2023/12/23 10:38:43;;;;;;;13.05;2.30;;;10.20;99.90;;;;;;5046254;28;20031;-73
2023/12/23 10:41:17;;;;;;;;;;;10.20;99.90;;;;;;5046798;28;20052;-72
2023/12/23 10:43:44;;;;;;;11.77;1.98;;;10.10;99.90;;;;;;5045511;28;19904;-73
2023/12/23 10:46:11;;;;;;;13.27;2.45;;;10.10;99.90;;;;;;5046872;28;20032;-73
2023/12/23 10:48:39;;;;;;;10.43;1.80;;;10.10;99.90;;;;;;5043645;28;20071;-73
2023/12/23 10:51:07;;;;;;;10.77;2.88;;;10.20;99.90;;;;;;5032990;28;20098;-73
2023/12/23 10:53:34;;;;;;;13.52;2.75;;;10.20;99.90;;;;;;5042083;28;20075;-73
2023/12/23 10:56:00;;;;;;;15.35;2.22;;;10.20;99.90;;;;;;5040331;28;20039;-73
2023/12/23 10:58:26;;;;;;;13.65;2.25;;;10.20;99.90;;;;;;5036809;28;20013;-72
2023/12/23 11:00:54;;;;;;;15.00;2.22;;;10.20;99.90;;;;;;5033109;28;20685;-73
2023/12/23 11:03:20;;;;;;;18.65;2.60;;;10.20;99.90;;;;;;5043966;28;20025;-74
2023/12/23 11:05:47;;;;;;;14.10;2.67;;;10.20;99.90;;;;;;5046441;28;20025;-73
2023/12/23 11:08:23;;;;;;;13.93;2.50;;;10.20;99.90;;;;;;5048558;28;20075;-73
2023/12/23 11:10:49;;;;;;;11.93;2.45;;;10.30;99.90;;;;;;5045977;28;20120;-73
2023/12/23 11:13:15;;;;;;;9.02;1.95;;;10.30;99.90;;;;;;5044399;28;20112;-73
2023/12/23 11:15:42;;;;;;;15.10;2.28;;;10.30;99.90;;;;;;5044701;28;20051;-73
2023/12/23 11:18:10;;;;;;;11.65;2.00;;;10.30;99.90;;;;;;5044040;28;20025;-73
2023/12/23 11:20:47;;;;;;;12.18;2.13;;;10.30;99.90;;;;;;5045898;28;20542;-73
2023/12/23 11:23:33;;;;;;;14.55;1.90;;;10.30;99.90;;;;;;5049151;28;20057;-73
2023/12/23 11:26:01;;;;;;;16.08;2.60;;;10.30;99.90;;;;;;5050475;28;20029;-72
2023/12/23 11:28:28;;;;;;;13.80;2.20;;;10.30;99.90;;;;;;5043606;28;20029;-72
2023/12/23 11:31:00;;;;;;;13.13;1.60;;;10.30;99.90;;;;;;5049120;28;20531;-73
2023/12/23 11:33:27;;;;;;;8.27;1.70;;;10.30;99.90;;;;;;5037066;28;20036;-73
2023/12/23 11:35:56;;;;;;;8.35;1.50;;;10.40;99.90;;;;;;5034235;28;20127;-73
2023/12/23 11:38:23;;;;;;;14.05;2.15;;;10.40;99.90;;;;;;5046206;28;20494;-73
2023/12/23 11:40:49;;;;;;;9.88;1.70;;;10.40;99.90;;;;;;5046012;28;20077;-74
2023/12/23 11:43:15;;;;;;;15.68;2.92;;;10.40;99.90;;;;;;5049189;28;20036;-73
2023/12/23 11:45:44;;;;;;;10.27;1.52;;;10.40;99.90;;;;;;5045787;28;20021;-74
2023/12/23 11:48:10;;;;;;;11.25;2.63;;;10.40;99.90;;;;;;5046465;28;20328;-73
2023/12/23 11:50:36;;;;;;;12.35;1.92;;;10.50;99.90;;;;;;5045993;28;20037;-73
2023/12/23 11:53:02;;;;;;;9.60;1.98;;;10.50;99.90;;;;;;5049142;28;20024;-74
2023/12/23 11:55:28;;;;;;;8.02;1.50;;;10.50;99.90;;;;;;5048618;28;20031;-71
2023/12/23 11:57:54;;;;;;;9.93;1.42;;;10.50;99.90;;;;;;5049490;28;20062;-71
2023/12/23 12:00:20;;;;;;;10.32;1.50;;;10.50;99.90;;;;;;5047731;28;20063;-73
2023/12/23 12:02:46;;;;;;;13.93;2.25;;;10.60;99.90;;;;;;5049831;28;20045;-71
2023/12/23 12:05:12;;;;;;;7.97;1.35;;;10.50;99.90;;;;;;5038114;28;20033;-71
2023/12/23 12:07:38;;;;;;;7.65;1.52;;;10.50;99.90;;;;;;5048745;28;20029;-71
2023/12/23 12:10:04;;;;;;;10.75;1.77;;;10.60;99.90;;;;;;5048889;28;20539;-71
2023/12/23 12:12:30;;;;;;;6.70;1.27;;;10.60;99.90;;;;;;5049078;28;20021;-71
2023/12/23 12:14:55;;;;;;;5.43;1.45;;;10.60;99.90;;;;;;5039838;28;20399;-72
2023/12/23 12:17:23;;;;;;;9.63;1.80;;;10.60;99.90;;;;;;5042977;28;20013;-71
2023/12/23 12:19:49;;;;;;;6.25;2.00;;;10.60;99.90;;;;;;5031140;28;20099;-71
2023/12/23 12:22:15;;;;;;;9.73;2.08;;;10.60;99.90;;;;;;5048997;28;20048;-71
2023/12/23 12:24:43;;;;;;;11.70;2.08;;;10.60;99.90;;;;;;5048840;28;20029;-71
2023/12/23 12:27:09;;;;;;;15.98;2.08;;;10.60;99.90;;;;;;5049533;28;20024;-71
2023/12/23 12:29:35;;;;;;;9.27;2.25;;;10.60;99.90;;;;;;5047861;28;20103;-72
2023/12/23 12:32:01;;;;;;;9.80;1.75;;;10.70;99.90;;;;;;5034414;28;20183;-71
2023/12/23 12:34:28;;;;;;;5.43;1.35;;;10.70;99.90;;;;;;5048923;28;20353;-71
2023/12/23 12:36:54;;;;;;;7.05;1.90;;;10.70;99.90;;;;;;5049169;28;20475;-71
2023/12/23 12:39:21;;;;;;;7.82;1.30;;;10.70;99.90;;;;;;5048473;28;20127;-70